createdAt,value
2023-02-27T00:01:13.527Z,99997.70
2023-02-27T00:03:41.644Z,100009.33
2023-02-27T00:06:09.832Z,100015.69
2023-02-27T00:08:46.367Z,100013.23
2023-02-27T00:11:15.196Z,100015.69
2023-02-27T00:13:44.228Z,100016.92
2023-02-27T00:16:13.363Z,100023.95
2023-02-27T00:18:45.694Z,100023.76
2023-02-27T00:21:13.872Z,100023.02
2023-02-27T00:23:41.998Z,100028.82
2023-02-27T00:26:12.122Z,100028.61
2023-02-27T00:28:40.876Z,100035.06
2023-02-27T00:31:09.200Z,100040.61
2023-02-27T00:33:37.987Z,100041.91
2023-02-27T00:36:06.812Z,100038.30
2023-02-27T00:38:36.370Z,100046.81
2023-02-27T00:41:05.416Z,100050.95
2023-02-27T00:43:38.058Z,100062.34
2023-02-27T00:46:07.712Z,100068.84
2023-02-27T00:48:36.120Z,100073.63
2023-02-27T00:51:04.900Z,100080.71
2023-02-27T00:53:33.116Z,100077.71
2023-02-27T00:56:01.446Z,100083.16
2023-02-27T00:58:29.885Z,100085.77
2023-02-27T01:01:00.071Z,100096.25
2023-02-27T01:03:31.200Z,100096.61
2023-02-27T01:05:59.560Z,100101.16
2023-02-27T01:08:27.804Z,100101.50
2023-02-27T01:11:00.861Z,100104.33
2023-02-27T01:13:33.010Z,100103.20
2023-02-27T01:16:01.602Z,100110.13
2023-02-27T01:18:30.793Z,100114.59
2023-02-27T01:20:58.981Z,100121.37
2023-02-27T01:23:27.119Z,100121.52
2023-02-27T01:25:55.457Z,100123.67
2023-02-27T01:28:24.130Z,100120.63
2023-02-27T01:30:52.498Z,100117.05
2023-02-27T01:33:21.430Z,100117.45
2023-02-27T01:35:52.836Z,100107.79
2023-02-27T01:38:21.408Z,100111.27
2023-02-27T01:40:49.567Z,100112.94
2023-02-27T01:43:20.232Z,100118.96
2023-02-27T01:45:49.567Z,100109.50
2023-02-27T01:48:26.079Z,100116.39
2023-02-27T01:51:00.974Z,100121.39
2023-02-27T01:53:30.353Z,100123.84
2023-02-27T01:56:05.699Z,100124.20
2023-02-27T01:58:34.218Z,100118.34
2023-02-27T02:01:03.506Z,100122.86
2023-02-27T02:03:56.528Z,100122.95
2023-02-27T02:06:24.997Z,100129.04
2023-02-27T02:08:54.044Z,100131.48
2023-02-27T02:11:22.253Z,100133.59
2023-02-27T02:13:52.017Z,100136.00
2023-02-27T02:16:29.578Z,100135.11
2023-02-27T02:19:22.739Z,100138.02
2023-02-27T02:22:28.914Z,100144.94
2023-02-27T02:25:11.621Z,100145.17
2023-02-27T02:28:03.084Z,100148.11
2023-02-27T02:30:56.963Z,100155.77
2023-02-27T02:33:55.912Z,100159.42
2023-02-27T02:36:37.149Z,100165.42
2023-02-27T02:39:30.158Z,100169.56
2023-02-27T02:42:03.456Z,100173.58
2023-02-27T02:44:59.420Z,100168.28
2023-02-27T02:47:47.651Z,100172.64
2023-02-27T02:50:53.700Z,100175.33
2023-02-27T02:53:53.277Z,100180.36
2023-02-27T02:56:27.623Z,100178.83
2023-02-27T02:59:00.740Z,100182.28
2023-02-27T03:01:42.224Z,100183.85
2023-02-27T03:04:18.946Z,100183.44
2023-02-27T03:06:54.013Z,100188.98
2023-02-27T03:09:31.757Z,100193.05
2023-02-27T03:12:03.489Z,100193.23
2023-02-27T03:14:40.133Z,100196.08
2023-02-27T03:17:10.880Z,100199.23
2023-02-27T03:19:48.076Z,100208.22
2023-02-27T03:22:19.637Z,100207.41
2023-02-27T03:24:53.151Z,100207.63
2023-02-27T03:27:23.291Z,100208.02
2023-02-27T03:30:04.115Z,100210.15
2023-02-27T03:32:42.801Z,100212.67
2023-02-27T03:35:12.380Z,100217.45
2023-02-27T03:38:10.103Z,100219.96
2023-02-27T03:40:42.038Z,100229.04
2023-02-27T03:43:28.073Z,100232.97
2023-02-27T03:46:03.946Z,100233.37
2023-02-27T03:48:33.028Z,100229.30
2023-02-27T03:51:01.313Z,100231.23
2023-02-27T03:53:47.243Z,100230.17
2023-02-27T03:56:16.914Z,100233.02
2023-02-27T03:58:45.279Z,100233.88
2023-02-27T04:01:33.301Z,100239.50
2023-02-27T04:04:05.521Z,100242.80
2023-02-27T04:07:16.865Z,100245.83
2023-02-27T04:10:05.706Z,100250.27
2023-02-27T04:12:55.469Z,100255.19
2023-02-27T04:15:31.493Z,100260.33
2023-02-27T04:18:05.469Z,100264.30
2023-02-27T04:20:43.903Z,100268.95
2023-02-27T04:23:17.852Z,100269.39
2023-02-27T04:25:52.598Z,100272.73
2023-02-27T04:28:40.261Z,100274.58
2023-02-27T04:31:20.495Z,100276.41
2023-02-27T04:34:30.546Z,100276.35
2023-02-27T04:37:31.243Z,100277.55
2023-02-27T04:40:06.434Z,100284.49
2023-02-27T04:42:40.555Z,100289.05
2023-02-27T04:45:18.163Z,100297.98
2023-02-27T04:47:52.466Z,100301.94
2023-02-27T04:50:27.929Z,100303.17
2023-02-27T04:53:13.849Z,100308.40
2023-02-27T04:55:47.545Z,100309.29
2023-02-27T04:58:19.040Z,100307.73
2023-02-27T05:00:52.727Z,100313.77
2023-02-27T05:03:26.341Z,100318.64
2023-02-27T05:05:56.385Z,100318.62
2023-02-27T05:08:28.927Z,100324.19
2023-02-27T05:11:04.458Z,100327.83
2023-02-27T05:13:43.823Z,100336.08
2023-02-27T05:16:37.368Z,100339.02
2023-02-27T05:19:08.650Z,100345.52
2023-02-27T05:21:38.624Z,100352.06
2023-02-27T05:24:45.115Z,100355.29
2023-02-27T05:27:24.957Z,100359.58
2023-02-27T05:30:00.005Z,100362.45
2023-02-27T05:32:36.478Z,100363.02
2023-02-27T05:35:09.635Z,100364.85
2023-02-27T05:37:53.503Z,100368.96
2023-02-27T05:40:39.564Z,100366.55
2023-02-27T05:43:14.486Z,100366.89
2023-02-27T05:45:44.132Z,100368.11
2023-02-27T05:48:32.832Z,100368.48
2023-02-27T05:51:01.072Z,100380.31
2023-02-27T05:53:34.197Z,100383.79
2023-02-27T05:56:02.749Z,100384.27
2023-02-27T05:58:41.728Z,100380.49
2023-02-27T06:01:11.205Z,100387.13
2023-02-27T06:03:40.295Z,100391.74
2023-02-27T06:06:12.020Z,100392.09
2023-02-27T06:08:41.129Z,100397.00
2023-02-27T06:11:09.321Z,100403.13
2023-02-27T06:13:37.968Z,100393.92
2023-02-27T06:16:08.907Z,100386.81
2023-02-27T06:18:37.997Z,100392.11
2023-02-27T06:21:06.713Z,100393.02
2023-02-27T06:23:37.067Z,100395.87
2023-02-27T06:26:05.738Z,100398.39
2023-02-27T06:28:33.814Z,100397.59
2023-02-27T06:31:02.574Z,100402.09
2023-02-27T06:33:30.832Z,100402.94
2023-02-27T06:36:00.650Z,100407.96
2023-02-27T06:38:29.318Z,100407.16
2023-02-27T06:41:04.486Z,100411.81
2023-02-27T06:43:35.071Z,100411.67
2023-02-27T06:46:03.762Z,100414.61
2023-02-27T06:48:33.044Z,100419.34
2023-02-27T06:52:25.959Z,100429.61
2023-02-27T06:54:53.043Z,100419.02
2023-02-27T06:57:19.992Z,100420.85
2023-02-27T06:59:46.940Z,100426.94
2023-02-27T07:02:14.915Z,100426.45
2023-02-27T07:04:46.625Z,100427.75
2023-02-27T07:07:35.607Z,100433.57
2023-02-27T07:10:07.354Z,100436.35
2023-02-27T07:12:34.232Z,100439.33
2023-02-27T07:15:01.146Z,100441.27
2023-02-27T07:17:28.449Z,100434.59
2023-02-27T07:19:59.064Z,100438.42
2023-02-27T07:22:26.369Z,100438.21
2023-02-27T07:24:53.299Z,100443.98
2023-02-27T07:27:20.452Z,100443.11
2023-02-27T07:29:47.797Z,100441.77
2023-02-27T07:32:14.987Z,100439.02
2023-02-27T07:34:41.884Z,100436.63
2023-02-27T07:37:08.815Z,100429.61
2023-02-27T07:39:36.888Z,100434.69
2023-02-27T07:42:03.697Z,100445.59
2023-02-27T07:44:32.527Z,100448.73
2023-02-27T07:46:59.505Z,100446.13
2023-02-27T07:49:26.327Z,100449.92
2023-02-27T07:51:53.244Z,100448.59
2023-02-27T07:54:21.144Z,100446.23
2023-02-27T07:56:48.194Z,100444.77
2023-02-27T07:59:16.932Z,100450.30
2023-02-27T08:01:43.775Z,100446.54
2023-02-27T08:04:13.264Z,100450.05
2023-02-27T08:06:40.285Z,100461.38
2023-02-27T08:09:07.274Z,100462.58
2023-02-27T08:11:35.497Z,100467.52
2023-02-27T08:14:03.175Z,100460.73
2023-02-27T08:16:31.407Z,100467.13
2023-02-27T08:19:00.443Z,100468.23
2023-02-27T08:21:27.720Z,100469.07
2023-02-27T08:23:55.152Z,100476.58
2023-02-27T08:26:22.216Z,100473.52
2023-02-27T08:28:49.553Z,100476.68
2023-02-27T08:31:16.451Z,100480.22
2023-02-27T08:33:46.433Z,100486.41
2023-02-27T08:36:14.560Z,100484.40
2023-02-27T08:38:41.382Z,100478.17
2023-02-27T08:41:08.385Z,100482.50
2023-02-27T08:43:35.962Z,100489.36
2023-02-27T08:46:03.771Z,100489.44
2023-02-27T08:48:30.757Z,100486.55
2023-02-27T08:50:58.050Z,100488.44
2023-02-27T08:53:25.791Z,100481.20
2023-02-27T08:55:52.985Z,100484.62
2023-02-27T08:58:21.420Z,100494.95
2023-02-27T09:00:49.626Z,100502.98
2023-02-27T09:03:17.703Z,100504.92
2023-02-27T09:05:44.799Z,100506.35
2023-02-27T09:08:13.503Z,100502.08
2023-02-27T09:10:40.544Z,100501.49
2023-02-27T09:13:11.921Z,100499.63
2023-02-27T09:15:38.840Z,100499.35
2023-02-27T09:18:08.966Z,100493.64
2023-02-27T09:20:36.763Z,100490.79
2023-02-27T09:23:03.991Z,100487.52
2023-02-27T09:25:31.640Z,100485.14
2023-02-27T09:27:58.595Z,100485.99
2023-02-27T09:30:25.677Z,100488.88
2023-02-27T09:32:52.999Z,100494.09
2023-02-27T09:35:24.862Z,100496.52
2023-02-27T09:37:51.818Z,100497.91
2023-02-27T09:40:29.727Z,100500.91
2023-02-27T09:43:00.091Z,100502.29
2023-02-27T09:45:28.415Z,100499.92
2023-02-27T09:48:06.108Z,100498.97
2023-02-27T09:50:34.182Z,100504.23
2023-02-27T09:53:01.444Z,100515.61
2023-02-27T09:55:34.571Z,100510.27
2023-02-27T09:58:03.903Z,100513.52
2023-02-27T10:00:41.777Z,100512.38
2023-02-27T10:03:32.786Z,100509.97
2023-02-27T10:06:14.909Z,100513.28
2023-02-27T10:09:07.197Z,100517.73
2023-02-27T10:12:03.129Z,100518.66
2023-02-27T10:14:54.441Z,100523.59
2023-02-27T10:17:27.635Z,100524.05
2023-02-27T10:19:54.983Z,100525.56
2023-02-27T10:22:31.060Z,100527.05
2023-02-27T10:25:30.222Z,100528.67
2023-02-27T10:28:03.085Z,100532.17
2023-02-27T10:30:32.978Z,100530.48
2023-02-27T10:33:19.102Z,100533.26
2023-02-27T10:35:46.328Z,100533.41
2023-02-27T10:38:17.773Z,100534.64
2023-02-27T10:40:44.720Z,100538.16
2023-02-27T10:43:16.666Z,100539.98
2023-02-27T10:45:43.616Z,100544.55
2023-02-27T10:48:15.468Z,100543.77
2023-02-27T10:50:51.423Z,100543.30
2023-02-27T10:53:23.299Z,100539.60
2023-02-27T10:56:02.545Z,100539.45
2023-02-27T10:58:34.900Z,100539.39
2023-02-27T11:01:04.197Z,100538.01
2023-02-27T11:03:41.072Z,100534.21
2023-02-27T11:06:09.550Z,100535.91
2023-02-27T11:08:36.569Z,100537.70
2023-02-27T11:11:10.627Z,100531.88
2023-02-27T11:13:43.103Z,100536.03
2023-02-27T11:16:15.611Z,100539.46
2023-02-27T11:18:47.028Z,100539.97
2023-02-27T11:21:23.796Z,100541.64
2023-02-27T11:24:19.447Z,100544.65
2023-02-27T11:27:21.404Z,100542.35
2023-02-27T11:30:07.128Z,100542.80
2023-02-27T11:32:45.496Z,100543.91
2023-02-27T11:35:24.047Z,100546.19
2023-02-27T11:38:22.830Z,100542.77
2023-02-27T11:40:56.670Z,100537.73
2023-02-27T11:43:24.801Z,100542.25
2023-02-27T11:46:10.185Z,100541.98
2023-02-27T11:48:48.391Z,100543.22
2023-02-27T11:51:34.193Z,100536.27
2023-02-27T11:54:11.460Z,100537.45
2023-02-27T11:56:44.249Z,100535.33
2023-02-27T11:59:10.985Z,100527.71
2023-02-27T12:02:01.785Z,100526.63
2023-02-27T12:04:51.372Z,100535.23
2023-02-27T12:07:19.034Z,100540.20
2023-02-27T12:09:57.746Z,100543.38
2023-02-27T12:12:34.817Z,100549.25
2023-02-27T12:15:26.907Z,100556.34
2023-02-27T12:18:15.939Z,100556.66
2023-02-27T12:21:06.813Z,100552.90
2023-02-27T12:23:42.886Z,100550.66
2023-02-27T12:26:12.640Z,100561.86
2023-02-27T12:29:03.216Z,100563.08
2023-02-27T12:31:36.370Z,100566.00
2023-02-27T12:34:25.531Z,100570.33
2023-02-27T12:36:53.036Z,100579.08
2023-02-27T12:39:23.853Z,100573.73
2023-02-27T12:41:57.984Z,100568.39
2023-02-27T12:45:06.622Z,100573.02
2023-02-27T12:47:57.283Z,100578.73
2023-02-27T12:50:24.692Z,100582.04
2023-02-27T12:53:22.142Z,100583.68
2023-02-27T12:55:54.343Z,100583.83
2023-02-27T12:58:40.720Z,100585.42
2023-02-27T13:01:23.850Z,100588.23
2023-02-27T13:03:57.737Z,100596.34
2023-02-27T13:06:42.100Z,100593.13
2023-02-27T13:09:21.266Z,100593.56
2023-02-27T13:12:03.443Z,100595.24
2023-02-27T13:14:42.317Z,100601.00
2023-02-27T13:17:21.319Z,100603.91
2023-02-27T13:19:52.370Z,100601.87
2023-02-27T13:22:52.046Z,100602.59
2023-02-27T13:25:18.895Z,100600.23
2023-02-27T13:27:51.808Z,100603.57
2023-02-27T13:30:29.362Z,100599.87
2023-02-27T13:33:19.518Z,100600.80
2023-02-27T13:35:56.122Z,100604.56
2023-02-27T13:38:44.178Z,100604.23
2023-02-27T13:41:20.923Z,100605.00
2023-02-27T13:43:52.756Z,100606.15
2023-02-27T13:46:30.522Z,100605.52
2023-02-27T13:49:03.737Z,100603.80
2023-02-27T13:58:06.212Z,100607.67
2023-02-27T14:00:35.366Z,100605.72
2023-02-27T14:03:20.911Z,100603.36
2023-02-27T14:05:49.830Z,100609.31
2023-02-27T14:08:26.938Z,100613.91
2023-02-27T14:11:11.553Z,100617.63
2023-02-27T14:13:50.096Z,100621.95
2023-02-27T14:16:37.369Z,100615.77
2023-02-27T14:19:12.133Z,100615.46
2023-02-27T14:29:25.761Z,100611.22
2023-02-27T14:31:55.027Z,100614.14
2023-02-27T14:34:23.591Z,100615.70
2023-02-27T14:36:57.764Z,100616.98
2023-02-27T14:39:31.419Z,100613.73
2023-02-27T14:42:17.998Z,100620.10
2023-02-27T14:44:47.433Z,100620.91
2023-02-27T14:47:20.571Z,100624.11
2023-02-27T14:49:49.391Z,100627.84
2023-02-27T14:52:23.435Z,100627.17
2023-02-27T14:54:51.813Z,100630.20
2023-02-27T14:57:23.652Z,100632.45
2023-02-27T14:59:53.014Z,100638.10
2023-02-27T15:02:32.244Z,100639.04
2023-02-27T15:05:00.688Z,100646.16
2023-02-27T15:07:30.706Z,100646.34
2023-02-27T15:10:05.936Z,100651.99
2023-02-27T15:12:37.857Z,100657.34
2023-02-27T15:15:07.875Z,100660.59
2023-02-27T15:17:40.629Z,100661.42
2023-02-27T15:20:34.600Z,100662.93
2023-02-27T15:23:20.807Z,100665.17
2023-02-27T15:25:48.971Z,100669.56
2023-02-27T15:28:34.464Z,100673.96
2023-02-27T15:31:02.637Z,100671.83
2023-02-27T15:33:36.205Z,100676.17
2023-02-27T15:36:05.424Z,100681.85
2023-02-27T15:38:35.155Z,100686.82
2023-02-27T15:41:03.636Z,100694.27
2023-02-27T15:43:32.012Z,100694.39
2023-02-27T15:46:00.508Z,100696.95
2023-02-27T15:48:30.068Z,100694.92
2023-02-27T15:50:59.361Z,100697.62
2023-02-27T15:53:29.028Z,100703.23
2023-02-27T15:55:59.129Z,100710.95
2023-02-27T15:58:31.985Z,100716.05
2023-02-27T16:01:09.338Z,100719.55
2023-02-27T16:03:39.894Z,100725.64
2023-02-27T16:06:12.979Z,100734.87
2023-02-27T16:08:48.418Z,100734.90
2023-02-27T16:11:27.275Z,100743.84
2023-02-27T16:14:43.671Z,100748.30
2023-02-27T16:17:23.050Z,100751.17
2023-02-27T16:19:52.026Z,100756.88
2023-02-27T16:22:21.637Z,100760.33
2023-02-27T16:24:50.260Z,100767.50
2023-02-27T16:27:26.436Z,100771.09
2023-02-27T16:30:02.744Z,100777.16
2023-02-27T16:32:41.672Z,100782.33
2023-02-27T16:35:20.811Z,100780.27
2023-02-27T16:37:50.409Z,100781.55
2023-02-27T16:40:24.191Z,100787.73
2023-02-27T16:42:52.606Z,100791.84
2023-02-27T16:45:24.811Z,100791.21
2023-02-27T16:47:55.204Z,100790.59
2023-02-27T16:50:43.788Z,100794.50
2023-02-27T16:53:12.295Z,100796.48
2023-02-27T16:55:41.135Z,100800.48
2023-02-27T16:58:16.227Z,100799.95
2023-02-27T17:00:44.503Z,100805.02
2023-02-27T17:03:14.585Z,100804.66
2023-02-27T17:05:42.882Z,100807.68
2023-02-27T17:08:11.888Z,100813.09
2023-02-27T17:10:40.075Z,100819.25
2023-02-27T17:13:14.133Z,100817.30
2023-02-27T17:15:43.980Z,100817.44
2023-02-27T17:18:12.059Z,100821.79
2023-02-27T17:20:40.585Z,100827.65
2023-02-27T17:23:14.418Z,100829.64
2023-02-27T17:25:42.661Z,100829.00
2023-02-27T17:28:10.813Z,100830.89
2023-02-27T17:30:39.267Z,100834.88
2023-02-27T17:33:07.577Z,100838.58
2023-02-27T17:35:36.446Z,100846.39
2023-02-27T17:38:07.119Z,100846.39
2023-02-27T17:40:37.778Z,100846.32
2023-02-27T17:43:06.580Z,100856.83
2023-02-27T17:45:35.058Z,100860.29
2023-02-27T17:48:03.849Z,100866.85
2023-02-27T17:50:32.504Z,100870.73
2023-02-27T17:53:00.950Z,100874.58
2023-02-27T17:55:29.456Z,100879.46
2023-02-27T17:57:59.417Z,100886.60
2023-02-27T18:00:27.910Z,100886.55
2023-02-27T18:02:57.582Z,100885.84
2023-02-27T18:05:26.474Z,100888.48
2023-02-27T18:07:57.318Z,100893.11
2023-02-27T18:10:26.944Z,100897.55
2023-02-27T18:12:55.212Z,100895.16
2023-02-27T18:15:26.516Z,100896.52
2023-02-27T18:17:54.723Z,100900.23
2023-02-27T18:20:22.924Z,100902.96
2023-02-27T18:22:51.207Z,100907.28
2023-02-27T18:25:20.344Z,100910.80
2023-02-27T18:27:49.911Z,100915.59
2023-02-27T18:30:20.389Z,100916.67
2023-02-27T18:32:49.847Z,100921.52
2023-02-27T18:35:18.134Z,100932.82
2023-02-27T18:37:46.605Z,100934.48
2023-02-27T18:40:15.510Z,100934.92
2023-02-27T18:42:46.409Z,100936.09
2023-02-27T18:45:14.827Z,100941.27
2023-02-27T18:55:46.527Z,100950.06
2023-02-27T18:58:16.005Z,100946.56
2023-02-27T19:00:43.483Z,100945.94
2023-02-27T19:03:10.779Z,100942.42
2023-02-27T19:05:40.974Z,100945.75
2023-02-27T19:10:45.844Z,100955.14
2023-02-27T19:13:13.385Z,100960.81
2023-02-27T19:15:41.782Z,100966.61
2023-02-27T19:18:08.816Z,100966.83
2023-02-27T19:20:38.669Z,100966.02
2023-02-27T19:23:06.161Z,100965.28
2023-02-27T19:25:33.344Z,100965.70
2023-02-27T19:28:00.816Z,100964.45
2023-02-27T19:30:28.285Z,100967.31
2023-02-27T19:32:55.441Z,100968.02
2023-02-27T19:35:23.204Z,100968.20
2023-02-27T19:37:56.363Z,100971.20
2023-02-27T19:40:24.542Z,100973.11
2023-02-27T19:42:52.354Z,100971.91
2023-02-27T19:45:19.672Z,100978.59
2023-02-27T19:47:47.129Z,100975.22
2023-02-27T19:50:14.455Z,100983.83
2023-02-27T19:52:41.950Z,100986.88
2023-02-27T19:55:09.905Z,100988.87
2023-02-27T19:57:36.978Z,100994.67
2023-02-27T20:00:07.655Z,100997.09
2023-02-27T20:02:40.301Z,100999.52
2023-02-27T20:05:08.047Z,100999.57
2023-02-27T20:07:35.425Z,101002.28
2023-02-27T20:10:05.226Z,101003.30
2023-02-27T20:12:32.667Z,101006.24
2023-02-27T20:15:10.306Z,101009.59
2023-02-27T20:17:38.331Z,101013.61
2023-02-27T20:20:06.415Z,101015.35
2023-02-27T20:22:33.878Z,101016.36
2023-02-27T20:25:01.248Z,101018.88
2023-02-27T20:27:29.922Z,101018.17
2023-02-27T20:29:57.060Z,101017.48
2023-02-27T20:32:24.793Z,101016.85
2023-02-27T20:34:53.676Z,101016.94
2023-02-27T20:37:22.950Z,101018.34
2023-02-27T20:39:50.194Z,101012.50
2023-02-27T20:42:17.197Z,101011.71
2023-02-27T20:44:44.165Z,101010.23
2023-02-27T20:47:11.232Z,101014.51
2023-02-27T20:49:38.105Z,101016.16
2023-02-27T20:52:05.230Z,101019.21
2023-02-27T20:54:32.602Z,101023.34
2023-02-27T20:56:59.518Z,101024.03
2023-02-27T20:59:26.403Z,101026.39
2023-02-27T21:01:54.247Z,101034.48
2023-02-27T21:04:25.800Z,101042.80
2023-02-27T21:06:57.344Z,101048.16
2023-02-27T21:09:24.404Z,101048.44
2023-02-27T21:11:51.439Z,101046.75
2023-02-27T21:14:18.302Z,101044.64
2023-02-27T21:16:45.432Z,101045.14
2023-02-27T21:19:12.248Z,101053.77
2023-02-27T21:21:39.986Z,101050.54
2023-02-27T21:24:07.663Z,101049.53
2023-02-27T21:26:37.729Z,101051.96
2023-02-27T21:29:05.905Z,101055.05
2023-02-27T21:31:35.228Z,101056.75
2023-02-27T21:34:04.994Z,101056.48
2023-02-27T21:36:34.124Z,101056.29
2023-02-27T21:39:22.875Z,101058.90
2023-02-27T21:41:50.362Z,101067.17
2023-02-27T21:44:19.472Z,101066.36
2023-02-27T21:46:46.634Z,101066.92
2023-02-27T21:49:19.365Z,101067.84
2023-02-27T21:51:46.720Z,101067.35
2023-02-27T21:54:14.286Z,101067.23
2023-02-27T21:56:41.629Z,101067.59
2023-02-27T21:59:11.352Z,101069.69
2023-02-27T22:01:38.658Z,101069.97
2023-02-27T22:04:07.604Z,101067.43
2023-02-27T22:06:35.048Z,101066.65
2023-02-27T22:09:04.447Z,101069.00
2023-02-27T22:11:31.791Z,101072.90
2023-02-27T22:13:58.764Z,101075.06
2023-02-27T22:16:27.579Z,101079.91
2023-02-27T22:18:54.589Z,101083.38
2023-02-27T22:21:24.717Z,101086.64
2023-02-27T22:23:52.995Z,101080.92
2023-02-27T22:26:23.513Z,101085.67
2023-02-27T22:28:51.304Z,101083.51
2023-02-27T22:31:20.118Z,101083.95
2023-02-27T22:33:51.846Z,101081.33
2023-02-27T22:36:24.038Z,101087.21
2023-02-27T22:38:50.969Z,101086.34
2023-02-27T22:41:19.924Z,101080.75
2023-02-27T22:43:47.118Z,101082.23
2023-02-27T22:46:16.400Z,101079.84
2023-02-27T22:48:43.450Z,101075.92
2023-02-27T22:51:13.739Z,101076.59
2023-02-27T22:53:45.421Z,101078.65
2023-02-27T22:56:13.921Z,101081.17
2023-02-27T22:58:42.416Z,101082.09
2023-02-27T23:01:16.820Z,101076.96
2023-02-27T23:03:44.815Z,101072.23
2023-02-27T23:06:13.682Z,101070.80
2023-02-27T23:08:41.703Z,101066.37
2023-02-27T23:18:55.983Z,101070.00
2023-02-27T23:21:26.980Z,101068.75
2023-02-27T23:23:58.252Z,101070.61
2023-02-27T23:26:29.704Z,101070.34
2023-02-27T23:28:58.012Z,101072.54
2023-02-27T23:31:26.570Z,101074.20
2023-02-27T23:33:55.097Z,101073.63
2023-02-27T23:36:23.376Z,101073.52
2023-02-27T23:38:52.134Z,101072.64
2023-02-27T23:41:21.062Z,101074.65
2023-02-27T23:43:52.295Z,101078.14
2023-02-27T23:46:20.770Z,101075.48
2023-02-27T23:48:49.249Z,101075.40
2023-02-27T23:51:17.496Z,101068.05
2023-02-27T23:53:45.818Z,101065.27
2023-02-27T23:56:17.899Z,101064.46
2023-02-27T23:58:46.355Z,101062.56
